createdAt,value
2022-10-23T00:01:55.703Z,12.48
2022-10-23T00:04:34.883Z,12.76
2022-10-23T00:07:07.232Z,12.71
2022-10-23T00:12:40.151Z,12.45
2022-10-23T00:15:32.936Z,12.53
2022-10-23T00:21:27.186Z,12.33
2022-10-23T00:24:15.764Z,12.02
2022-10-23T00:27:09.989Z,12.20
2022-10-23T00:29:41.215Z,12.32
2022-10-23T10:02:31.437Z,15.12
2022-10-23T10:13:35.771Z,15.33
2022-10-23T10:20:35.484Z,15.50
2022-10-23T12:00:02.500Z,17.03
2022-10-23T12:02:44.512Z,17.32
2022-10-23T12:05:34.861Z,17.49
2022-10-23T12:08:02.737Z,17.46
2022-10-23T12:10:37.133Z,17.77
2022-10-23T12:32:58.274Z,17.91
2022-10-23T12:36:14.301Z,17.18
2022-10-23T12:39:00.048Z,17.65
2022-10-23T12:55:54.517Z,17.77
2022-10-23T12:58:42.934Z,17.54
2022-10-23T13:02:09.365Z,17.77
2022-10-23T13:05:04.539Z,17.76
2022-10-23T14:06:27.246Z,18.26
2022-10-23T14:09:56.840Z,18.47
2022-10-23T14:31:07.409Z,19.65
2022-10-23T15:46:43.973Z,18.10
2022-10-23T15:49:13.455Z,17.67
2022-10-23T19:13:50.383Z,17.15
2022-10-23T20:57:00.761Z,15.35
2022-10-23T20:59:27.101Z,15.48
2022-10-23T21:02:00.120Z,15.44
2022-10-23T21:59:55.258Z,15.10
2022-10-23T22:03:03.129Z,15.38
2022-10-23T22:05:39.330Z,15.63
2022-10-23T22:08:18.067Z,15.43
2022-10-23T22:10:51.946Z,15.50
2022-10-23T22:13:52.856Z,15.35
2022-10-23T22:16:33.792Z,15.21
2022-10-23T22:19:44.634Z,15.61
2022-10-23T22:22:23.163Z,15.73
2022-10-23T22:25:13.452Z,15.19
2022-10-23T22:28:01.565Z,15.05
2022-10-23T22:30:32.146Z,15.63
2022-10-23T22:33:10.908Z,15.55
2022-10-23T22:36:11.481Z,15.30
2022-10-23T22:38:50.090Z,15.28
2022-10-23T22:41:28.378Z,15.43
2022-10-23T22:44:02.032Z,15.70
2022-10-23T22:46:48.761Z,15.25
2022-10-23T22:49:59.780Z,15.90
2022-10-23T22:52:35.807Z,15.28
2022-10-23T22:55:09.800Z,16.01
2022-10-23T22:57:40.436Z,15.59
2022-10-23T23:00:16.609Z,15.63
2022-10-23T23:02:44.781Z,15.71
2022-10-23T23:05:30.424Z,15.35
2022-10-23T23:08:45.464Z,16.08
2022-10-23T23:11:45.648Z,15.36
2022-10-23T23:24:34.225Z,15.70
2022-10-23T23:28:01.369Z,15.45
2022-10-23T23:30:24.613Z,15.85
2022-10-23T23:33:19.474Z,15.63
2022-10-23T23:39:49.778Z,15.67
2022-10-23T23:52:39.587Z,15.80
